createdAt,value
2018-06-12T00:00:51.029Z,0.90
2018-06-12T00:03:20.034Z,1.13
2018-06-12T00:05:49.427Z,1.07
2018-06-12T00:08:18.762Z,1.57
2018-06-12T00:10:47.818Z,1.87
2018-06-12T00:13:16.933Z,1.40
2018-06-12T00:15:45.956Z,1.43
2018-06-12T00:18:14.908Z,1.50
2018-06-12T00:20:43.987Z,2.03
2018-06-12T00:23:13.255Z,1.87
2018-06-12T00:25:42.239Z,1.50
2018-06-12T00:28:11.488Z,1.40
2018-06-12T00:30:40.609Z,1.40
2018-06-12T00:33:09.949Z,0.90
2018-06-12T00:35:39.327Z,1.30
2018-06-12T00:38:08.872Z,1.53
2018-06-12T00:40:38.012Z,1.23
2018-06-12T00:43:07.501Z,1.73
2018-06-12T00:45:36.458Z,1.10
2018-06-12T00:48:05.504Z,1.40
2018-06-12T00:50:34.483Z,1.70
2018-06-12T00:53:03.851Z,1.60
2018-06-12T00:55:33.204Z,1.27
2018-06-12T00:58:02.638Z,3.23
2018-06-12T01:00:31.894Z,1.37
2018-06-12T01:03:01.264Z,1.23
2018-06-12T01:05:30.644Z,2.13
2018-06-12T01:07:59.980Z,1.33
2018-06-12T01:10:30.054Z,1.40
2018-06-12T01:12:59.172Z,1.63
2018-06-12T01:15:28.263Z,2.20
2018-06-12T01:17:57.193Z,1.63
2018-06-12T01:20:26.184Z,1.93
2018-06-12T01:22:55.221Z,2.07
2018-06-12T01:25:24.203Z,2.27
2018-06-12T01:27:53.648Z,1.20
2018-06-12T01:30:23.146Z,1.63
2018-06-12T01:32:52.111Z,1.40
2018-06-12T01:35:21.217Z,1.80
2018-06-12T01:37:50.149Z,1.30
2018-06-12T01:40:19.179Z,1.43
2018-06-12T01:42:48.237Z,1.60
2018-06-12T01:45:17.276Z,1.53
2018-06-12T01:47:46.287Z,1.73
2018-06-12T01:50:15.359Z,2.13
2018-06-12T01:52:44.449Z,1.20
2018-06-12T01:55:13.654Z,1.67
2018-06-12T01:57:42.619Z,1.23
2018-06-12T02:00:11.930Z,1.70
2018-06-12T02:02:41.329Z,2.30
2018-06-12T02:05:10.333Z,1.60
2018-06-12T02:07:39.413Z,2.50
2018-06-12T02:10:08.419Z,1.40
2018-06-12T02:12:37.551Z,1.60
2018-06-12T02:15:06.875Z,1.40
2018-06-12T02:17:36.278Z,1.57
2018-06-12T02:20:05.682Z,1.23
2018-06-12T02:22:34.721Z,2.03
2018-06-12T02:25:03.680Z,1.30
2018-06-12T02:27:32.753Z,1.50
2018-06-12T02:30:02.124Z,1.93
2018-06-12T02:32:31.057Z,2.80
2018-06-12T02:35:00.120Z,2.90
2018-06-12T02:37:29.083Z,2.67
2018-06-12T02:39:58.848Z,2.67
2018-06-12T02:42:27.958Z,2.17
2018-06-12T02:44:57.061Z,2.73
2018-06-12T02:47:26.027Z,3.03
2018-06-12T02:49:54.985Z,3.37
2018-06-12T02:52:24.005Z,2.37
2018-06-12T02:54:53.243Z,2.10
2018-06-12T02:57:22.325Z,2.30
2018-06-12T02:59:51.813Z,2.03
2018-06-12T03:02:21.266Z,2.83
2018-06-12T03:04:50.382Z,2.10
2018-06-12T03:07:19.632Z,2.30
2018-06-12T03:09:49.036Z,1.77
2018-06-12T03:12:18.400Z,2.27
2018-06-12T03:14:47.527Z,2.17
2018-06-12T03:17:16.556Z,1.60
2018-06-12T03:19:45.911Z,2.00
2018-06-12T03:22:14.880Z,1.77
2018-06-12T03:24:43.933Z,2.50
2018-06-12T03:27:12.888Z,1.63
2018-06-12T03:29:41.962Z,2.03
2018-06-12T03:32:11.020Z,2.00
2018-06-12T03:34:40.320Z,1.87
2018-06-12T03:37:09.693Z,1.67
2018-06-12T03:39:39.006Z,1.90
2018-06-12T03:42:08.404Z,1.57
2018-06-12T03:44:37.673Z,1.83
2018-06-12T03:47:06.621Z,1.40
2018-06-12T03:49:42.202Z,1.93
2018-06-12T03:52:11.221Z,1.90
2018-06-12T03:54:40.642Z,1.57
2018-06-12T03:57:09.845Z,1.37
2018-06-12T03:59:39.359Z,1.77
2018-06-12T04:02:08.645Z,1.90
2018-06-12T04:04:37.646Z,1.43
2018-06-12T04:07:06.666Z,2.10
2018-06-12T04:09:35.640Z,2.53
2018-06-12T04:12:04.670Z,2.17
2018-06-12T04:14:33.664Z,2.00
2018-06-12T04:17:03.193Z,2.10
2018-06-12T04:19:32.155Z,2.67
2018-06-12T04:22:01.172Z,1.37
2018-06-12T04:24:30.619Z,1.97
2018-06-12T04:27:00.032Z,1.80
2018-06-12T04:29:29.325Z,2.13
2018-06-12T04:31:58.264Z,1.63
2018-06-12T04:34:27.328Z,1.80
2018-06-12T04:36:56.345Z,1.90
2018-06-12T04:39:25.356Z,2.43
2018-06-12T04:41:54.386Z,2.67
2018-06-12T04:44:23.568Z,2.80
2018-06-12T04:46:52.545Z,2.47
2018-06-12T04:49:21.664Z,2.30
2018-06-12T04:51:50.679Z,2.57
2018-06-12T04:54:19.749Z,2.60
2018-06-12T04:56:48.801Z,3.23
2018-06-12T04:59:17.997Z,2.63
2018-06-12T05:01:47.278Z,3.23
2018-06-12T05:04:16.669Z,2.63
2018-06-12T05:06:47.692Z,3.30
2018-06-12T05:09:16.787Z,2.40
2018-06-12T05:11:46.399Z,3.20
2018-06-12T05:14:16.130Z,4.20
2018-06-12T05:16:45.252Z,4.17
2018-06-12T05:19:14.362Z,3.10
2018-06-12T05:21:44.289Z,4.60
2018-06-12T05:24:13.590Z,3.70
2018-06-12T05:26:46.638Z,3.60
2018-06-12T05:29:15.768Z,5.40
2018-06-12T05:31:44.931Z,3.90
2018-06-12T05:34:14.810Z,4.30
2018-06-12T05:36:43.845Z,3.47
2018-06-12T05:39:12.897Z,3.27
2018-06-12T05:41:48.221Z,2.77
2018-06-12T05:44:17.764Z,3.23
2018-06-12T05:46:48.062Z,3.20
2018-06-12T05:49:22.628Z,4.23
2018-06-12T05:51:51.968Z,3.70
2018-06-12T05:54:21.485Z,3.63
2018-06-12T05:56:50.909Z,2.90
2018-06-12T05:59:20.180Z,3.30
2018-06-12T06:01:49.531Z,3.80
2018-06-12T06:04:18.934Z,3.03
2018-06-12T06:06:48.379Z,3.20
2018-06-12T06:09:17.637Z,3.67
2018-06-12T06:11:46.939Z,3.07
2018-06-12T06:14:15.954Z,3.67
2018-06-12T06:16:45.294Z,2.70
2018-06-12T06:19:14.767Z,3.27
2018-06-12T06:21:46.198Z,3.53
2018-06-12T06:24:15.513Z,3.73
2018-06-12T06:26:46.553Z,4.67
2018-06-12T06:29:16.009Z,3.60
2018-06-12T06:31:46.578Z,3.17
2018-06-12T06:34:15.910Z,2.97
2018-06-12T06:36:45.350Z,3.90
2018-06-12T06:39:14.675Z,3.73
2018-06-12T06:41:44.854Z,3.50
2018-06-12T06:44:17.871Z,3.37
2018-06-12T06:46:47.743Z,3.03
2018-06-12T06:49:18.408Z,2.50
2018-06-12T06:51:48.858Z,4.03
2018-06-12T06:54:24.995Z,3.90
2018-06-12T06:56:54.588Z,2.60
2018-06-12T06:59:24.190Z,4.33
2018-06-12T07:01:55.579Z,3.00
2018-06-12T07:04:25.502Z,2.90
2018-06-12T07:06:57.091Z,3.37
2018-06-12T07:09:26.486Z,2.33
2018-06-12T07:11:55.732Z,3.03
2018-06-12T07:14:25.187Z,2.80
2018-06-12T07:16:54.721Z,3.00
2018-06-12T07:19:23.700Z,2.97
2018-06-12T07:21:55.818Z,2.77
2018-06-12T07:24:25.568Z,3.67
2018-06-12T07:26:54.803Z,3.00
2018-06-12T07:29:24.361Z,2.60
2018-06-12T07:31:53.832Z,3.47
2018-06-12T07:34:24.326Z,2.40
2018-06-12T07:36:54.494Z,3.40
2018-06-12T07:39:24.294Z,2.60
2018-06-12T07:41:55.691Z,2.93
2018-06-12T07:44:25.230Z,2.73
2018-06-12T07:46:54.923Z,3.40
2018-06-12T07:49:25.482Z,3.30
2018-06-12T07:51:55.159Z,3.10
2018-06-12T07:54:25.858Z,3.07
2018-06-12T07:56:55.049Z,2.73
2018-06-12T07:59:24.380Z,5.50
2018-06-12T08:01:54.544Z,3.80
2018-06-12T08:04:24.413Z,3.43
2018-06-12T08:06:53.767Z,3.60
2018-06-12T08:09:23.744Z,3.33
2018-06-12T08:11:53.290Z,3.23
2018-06-12T08:14:23.225Z,2.97
2018-06-12T08:16:52.209Z,3.50
2018-06-12T08:19:21.457Z,3.73
2018-06-12T08:21:52.591Z,4.17
2018-06-12T08:24:22.141Z,3.70
2018-06-12T08:26:51.124Z,4.30
2018-06-12T08:29:22.460Z,3.33
2018-06-12T08:31:52.326Z,3.40
2018-06-12T08:34:21.639Z,3.60
2018-06-12T08:36:50.741Z,3.60
2018-06-12T08:39:19.775Z,3.50
2018-06-12T08:41:48.908Z,3.43
2018-06-12T08:44:17.995Z,2.93
2018-06-12T08:46:49.557Z,4.10
2018-06-12T08:49:19.510Z,4.50
2018-06-12T08:51:48.601Z,3.70
2018-06-12T08:54:19.291Z,3.03
2018-06-12T08:56:48.509Z,3.43
2018-06-12T08:59:17.587Z,3.40
2018-06-12T09:01:47.790Z,4.70
2018-06-12T09:04:16.822Z,3.87
2018-06-12T09:06:45.844Z,4.67
2018-06-12T09:09:15.355Z,3.30
2018-06-12T09:11:44.671Z,4.23
2018-06-12T09:14:13.720Z,3.93
2018-06-12T09:16:44.269Z,3.40
2018-06-12T09:19:13.325Z,2.70
2018-06-12T09:21:42.915Z,3.30
2018-06-12T09:24:12.024Z,3.10
2018-06-12T09:26:41.117Z,4.27
2018-06-12T09:29:11.580Z,3.27
2018-06-12T09:31:40.811Z,3.40
2018-06-12T09:34:13.413Z,3.67
2018-06-12T09:36:44.544Z,3.17
2018-06-12T09:39:14.666Z,3.63
2018-06-12T09:41:44.391Z,3.00
2018-06-12T09:44:14.736Z,3.20
2018-06-12T09:46:45.488Z,3.07
2018-06-12T09:49:14.771Z,2.83
2018-06-12T09:51:44.261Z,4.27
2018-06-12T09:54:13.639Z,2.80
2018-06-12T09:56:44.799Z,3.20
2018-06-12T09:59:14.219Z,2.50
2018-06-12T10:01:44.343Z,3.50
2018-06-12T10:04:15.592Z,2.83
2018-06-12T10:06:45.009Z,3.83
2018-06-12T10:09:14.369Z,3.77
2018-06-12T10:11:44.397Z,3.17
2018-06-12T10:14:15.444Z,3.10
2018-06-12T10:16:45.675Z,3.07
2018-06-12T10:19:14.919Z,4.20
2018-06-12T10:21:45.075Z,2.70
2018-06-12T10:24:15.239Z,3.77
2018-06-12T10:26:44.604Z,2.77
2018-06-12T10:29:15.386Z,2.77
2018-06-12T10:31:45.459Z,3.50
2018-06-12T10:34:14.887Z,2.60
2018-06-12T10:36:44.967Z,3.57
2018-06-12T10:39:15.285Z,2.87
2018-06-12T10:41:46.017Z,2.83
2018-06-12T10:44:16.046Z,2.70
2018-06-12T10:46:45.327Z,3.90
2018-06-12T10:49:14.644Z,3.40
2018-06-12T10:51:44.676Z,3.10
2018-06-12T10:54:16.134Z,2.93
2018-06-12T10:56:45.454Z,2.53
2018-06-12T10:59:15.441Z,3.40
2018-06-12T11:01:45.140Z,4.63
2018-06-12T11:04:14.651Z,3.03
2018-06-12T11:06:43.996Z,2.87
2018-06-12T11:09:13.304Z,3.07
2018-06-12T11:11:42.515Z,3.40
2018-06-12T11:14:11.935Z,2.33
2018-06-12T11:16:41.909Z,2.60
2018-06-12T11:19:11.384Z,2.27
2018-06-12T11:21:40.750Z,3.40
2018-06-12T11:24:10.048Z,3.13
2018-06-12T11:26:39.579Z,3.30
2018-06-12T11:29:09.238Z,3.37
2018-06-12T11:31:39.182Z,3.37
2018-06-12T11:34:08.374Z,2.97
2018-06-12T11:36:39.057Z,3.70
2018-06-12T11:39:08.926Z,2.60
2018-06-12T11:41:38.289Z,3.10
2018-06-12T11:44:08.474Z,2.97
2018-06-12T11:46:40.573Z,2.80
2018-06-12T11:49:10.099Z,2.60
2018-06-12T11:51:39.576Z,2.80
2018-06-12T11:54:08.998Z,3.80
2018-06-12T11:56:38.307Z,2.30
2018-06-12T11:59:09.003Z,3.90
2018-06-12T12:01:38.421Z,4.20
2018-06-12T12:04:07.987Z,3.43
2018-06-12T12:06:37.092Z,3.10
2018-06-12T12:09:09.873Z,3.30
2018-06-12T12:11:39.347Z,3.50
2018-06-12T12:14:10.530Z,3.73
2018-06-12T12:16:41.602Z,3.03
2018-06-12T12:19:10.993Z,2.90
2018-06-12T12:21:41.548Z,4.53
2018-06-12T12:24:11.274Z,4.00
2018-06-12T12:26:46.559Z,3.73
2018-06-12T12:29:16.003Z,3.83
2018-06-12T12:31:45.328Z,3.87
2018-06-12T12:34:15.613Z,4.03
2018-06-12T12:36:47.963Z,3.33
2018-06-12T12:39:17.362Z,2.90
2018-06-12T12:41:46.886Z,3.20
2018-06-12T12:44:16.342Z,3.20
2018-06-12T12:46:46.443Z,3.77
2018-06-12T12:49:16.592Z,3.30
2018-06-12T12:51:46.075Z,2.83
2018-06-12T12:54:15.166Z,3.90
2018-06-12T12:56:44.223Z,3.50
2018-06-12T12:59:13.529Z,3.63
2018-06-12T13:01:43.015Z,3.30
2018-06-12T13:04:13.073Z,3.57
2018-06-12T13:06:44.107Z,4.07
2018-06-12T13:09:13.738Z,3.93
2018-06-12T13:11:46.190Z,4.33
2018-06-12T13:14:33.368Z,4.67
2018-06-12T13:17:02.443Z,4.07
2018-06-12T13:19:32.716Z,3.60
2018-06-12T13:22:04.125Z,3.60
2018-06-12T13:24:33.603Z,4.70
2018-06-12T13:27:03.225Z,4.57
2018-06-12T13:29:33.547Z,4.00
2018-06-12T13:32:03.488Z,4.43
2018-06-12T13:34:32.695Z,4.13
2018-06-12T13:37:02.056Z,4.37
2018-06-12T13:39:31.613Z,4.20
2018-06-12T13:42:01.719Z,3.83
2018-06-12T13:44:31.190Z,4.17
2018-06-12T13:47:02.770Z,4.80
2018-06-12T13:49:33.130Z,4.17
2018-06-12T13:52:02.718Z,3.77
2018-06-12T13:54:32.068Z,4.50
2018-06-12T13:57:04.248Z,4.80
2018-06-12T13:59:38.887Z,3.77
2018-06-12T14:02:08.592Z,4.67
2018-06-12T14:04:39.050Z,4.00
2018-06-12T14:07:12.924Z,4.27
2018-06-12T14:09:42.362Z,4.27
2018-06-12T14:12:11.817Z,4.07
2018-06-12T14:14:41.196Z,5.30
2018-06-12T14:17:11.785Z,4.20
2018-06-12T14:19:45.147Z,4.80
2018-06-12T14:22:16.011Z,4.10
2018-06-12T14:24:46.120Z,4.60
2018-06-12T14:27:15.468Z,4.03
2018-06-12T14:29:46.053Z,2.43
2018-06-12T14:32:16.682Z,2.20
2018-06-12T14:34:46.060Z,1.90
2018-06-12T14:37:15.555Z,1.70
2018-06-12T14:39:45.166Z,1.50
2018-06-12T14:42:16.579Z,1.53
2018-06-12T14:44:46.900Z,2.03
2018-06-12T14:47:16.047Z,2.10
2018-06-12T14:49:45.556Z,2.10
2018-06-12T14:52:15.346Z,1.90
2018-06-12T14:54:44.643Z,2.33
2018-06-12T14:57:13.994Z,2.40
2018-06-12T14:59:43.919Z,2.07
2018-06-12T15:02:14.694Z,1.30
2018-06-12T15:04:44.286Z,1.37
2018-06-12T15:07:15.128Z,1.40
2018-06-12T15:09:45.017Z,1.30
2018-06-12T15:12:14.617Z,1.33
2018-06-12T15:14:44.143Z,1.40
2018-06-12T15:17:14.927Z,1.57
2018-06-12T15:19:47.515Z,1.50
2018-06-12T15:22:18.999Z,1.20
2018-06-12T15:24:51.075Z,1.73
2018-06-12T15:27:21.449Z,1.40
2018-06-12T15:29:51.710Z,1.70
2018-06-12T15:32:20.889Z,1.63
2018-06-12T15:34:50.261Z,1.33
2018-06-12T15:37:20.728Z,1.63
2018-06-12T15:39:50.264Z,1.50
2018-06-12T15:42:20.880Z,2.30
2018-06-12T15:44:51.119Z,2.10
2018-06-12T15:47:22.749Z,2.00
2018-06-12T15:49:53.112Z,2.33
2018-06-12T15:52:25.657Z,2.10
2018-06-12T15:54:57.439Z,2.13
2018-06-12T15:57:28.514Z,2.03
2018-06-12T15:59:59.153Z,1.83
2018-06-12T16:02:29.451Z,2.47
2018-06-12T16:05:00.230Z,2.07
2018-06-12T16:07:30.268Z,1.63
2018-06-12T16:10:04.445Z,1.87
2018-06-12T16:12:36.047Z,2.77
2018-06-12T16:15:08.839Z,2.30
2018-06-12T16:17:38.582Z,1.57
2018-06-12T16:20:08.782Z,2.00
2018-06-12T16:22:39.905Z,2.63
2018-06-12T16:25:10.397Z,2.07
2018-06-12T16:27:40.597Z,2.23
2018-06-12T16:30:10.111Z,2.00
2018-06-12T16:32:42.650Z,2.70
2018-06-12T16:35:13.392Z,3.80
2018-06-12T16:37:45.892Z,2.13
2018-06-12T16:40:17.216Z,2.90
2018-06-12T16:42:49.169Z,2.67
2018-06-12T16:45:19.492Z,3.00
2018-06-12T16:47:51.174Z,2.67
2018-06-12T16:50:20.828Z,2.30
2018-06-12T16:52:51.800Z,2.30
2018-06-12T16:55:23.620Z,2.30
2018-06-12T16:57:53.318Z,2.30
2018-06-12T17:00:25.858Z,1.80
2018-06-12T17:02:56.858Z,3.03
2018-06-12T17:05:27.149Z,2.67
2018-06-12T17:07:56.706Z,1.90
2018-06-12T17:10:26.150Z,1.73
2018-06-12T17:12:55.677Z,2.70
2018-06-12T17:15:25.173Z,2.53
2018-06-12T17:17:54.816Z,2.47
2018-06-12T17:20:24.444Z,1.90
2018-06-12T17:22:53.888Z,2.30
2018-06-12T17:25:23.245Z,2.67
2018-06-12T17:27:52.757Z,1.70
2018-06-12T17:30:24.340Z,2.50
2018-06-12T17:32:56.446Z,2.10
2018-06-12T17:35:26.352Z,2.03
2018-06-12T17:37:56.039Z,2.47
2018-06-12T17:40:25.953Z,2.67
2018-06-12T17:42:55.459Z,1.90
2018-06-12T17:45:25.741Z,4.27
2018-06-12T17:47:55.070Z,3.63
2018-06-12T17:50:24.603Z,1.83
2018-06-12T17:52:55.019Z,2.30
2018-06-12T17:55:24.790Z,2.53
2018-06-12T17:57:54.167Z,1.70
2018-06-12T18:00:24.602Z,2.67
2018-06-12T18:02:55.507Z,2.00
2018-06-12T18:05:26.425Z,2.40
2018-06-12T18:07:59.506Z,1.90
2018-06-12T18:10:31.223Z,1.90
2018-06-12T18:13:00.515Z,2.33
2018-06-12T18:15:31.415Z,1.80
2018-06-12T18:18:01.881Z,2.77
2018-06-12T18:20:32.709Z,2.37
2018-06-12T18:23:02.443Z,2.23
2018-06-12T18:25:32.721Z,1.63
2018-06-12T18:28:06.459Z,1.77
2018-06-12T18:30:38.119Z,1.90
2018-06-12T18:33:08.375Z,2.17
2018-06-12T18:35:39.882Z,2.30
2018-06-12T18:38:11.714Z,2.50
2018-06-12T18:40:42.922Z,2.07
2018-06-12T18:43:12.021Z,2.97
2018-06-12T18:45:41.417Z,2.07
2018-06-12T18:48:11.244Z,2.57
2018-06-12T18:50:41.475Z,2.57
2018-06-12T18:53:11.380Z,1.90
2018-06-12T18:55:41.409Z,1.83
2018-06-12T18:58:14.487Z,2.10
2018-06-12T19:00:45.840Z,2.53
2018-06-12T19:03:16.335Z,1.63
2018-06-12T19:05:46.666Z,2.43
2018-06-12T19:08:16.988Z,1.80
2018-06-12T19:10:47.146Z,3.00
2018-06-12T19:13:16.951Z,2.20
2018-06-12T19:15:46.967Z,4.73
2018-06-12T19:18:19.642Z,2.90
2018-06-12T19:20:49.432Z,1.70
2018-06-12T19:23:20.740Z,2.30
2018-06-12T19:25:52.735Z,2.20
2018-06-12T19:28:22.617Z,2.13
2018-06-12T19:30:54.164Z,2.10
2018-06-12T19:33:23.839Z,1.50
2018-06-12T19:35:54.182Z,2.20
2018-06-12T19:38:24.869Z,1.83
2018-06-12T19:40:56.060Z,2.10
2018-06-12T19:43:27.650Z,2.80
2018-06-12T19:45:59.162Z,2.50
2018-06-12T19:48:28.731Z,2.23
2018-06-12T19:50:59.260Z,1.93
2018-06-12T19:53:29.610Z,1.63
2018-06-12T19:55:59.155Z,1.90
2018-06-12T19:58:28.809Z,1.83
2018-06-12T20:00:59.122Z,3.73
2018-06-12T20:03:29.237Z,1.80
2018-06-12T20:05:58.752Z,2.00
2018-06-12T20:08:30.523Z,2.53
2018-06-12T20:11:00.986Z,1.67
2018-06-12T20:13:30.690Z,2.43
2018-06-12T20:16:00.407Z,1.90
2018-06-12T20:18:30.006Z,2.00
2018-06-12T20:20:59.448Z,2.07
2018-06-12T20:23:29.226Z,1.80
2018-06-12T20:25:58.691Z,2.40
2018-06-12T20:28:29.545Z,2.00
2018-06-12T20:31:01.085Z,2.53
2018-06-12T20:33:30.864Z,2.37
2018-06-12T20:36:00.970Z,2.87
2018-06-12T20:38:30.396Z,2.20
2018-06-12T20:40:59.886Z,2.47
2018-06-12T20:43:30.568Z,1.80
2018-06-12T20:46:00.682Z,3.53
2018-06-12T20:48:30.578Z,3.13
2018-06-12T20:51:00.891Z,3.50
2018-06-12T20:53:32.537Z,4.67
2018-06-12T20:56:01.950Z,2.40
2018-06-12T20:58:31.380Z,2.17
2018-06-12T21:01:00.799Z,2.43
2018-06-12T21:03:30.233Z,2.40
2018-06-12T21:05:59.641Z,2.03
2018-06-12T21:08:29.007Z,2.60
2018-06-12T21:10:59.761Z,2.60
2018-06-12T21:13:29.578Z,2.93
2018-06-12T21:16:00.078Z,1.30
2018-06-12T21:18:29.517Z,2.87
2018-06-12T21:20:59.988Z,1.70
2018-06-12T21:23:30.670Z,2.33
2018-06-12T21:26:02.147Z,1.73
2018-06-12T21:28:32.225Z,2.40
2018-06-12T21:31:01.581Z,2.50
2018-06-12T21:33:32.649Z,2.90
2018-06-12T21:36:02.291Z,2.40
2018-06-12T21:38:31.747Z,1.80
2018-06-12T21:41:02.924Z,2.30
2018-06-12T21:43:32.144Z,2.67
2018-06-12T21:46:01.411Z,1.87
2018-06-12T21:48:30.714Z,2.57
2018-06-12T21:51:00.106Z,1.93
2018-06-12T21:53:29.331Z,2.30
2018-06-12T21:55:59.201Z,1.80
2018-06-12T21:58:28.551Z,2.20
2018-06-12T22:00:58.072Z,2.23
2018-06-12T22:03:27.416Z,2.33
2018-06-12T22:05:57.666Z,2.60
2018-06-12T22:08:27.998Z,2.60
2018-06-12T22:10:57.238Z,2.40
2018-06-12T22:13:26.740Z,2.77
2018-06-12T22:15:56.619Z,3.13
2018-06-12T22:18:26.215Z,2.67
2018-06-12T22:20:55.549Z,2.80
2018-06-12T22:23:25.234Z,2.70
2018-06-12T22:25:54.273Z,2.57
2018-06-12T22:28:23.432Z,2.87
2018-06-12T22:30:53.245Z,2.90
2018-06-12T22:33:23.656Z,2.33
2018-06-12T22:35:53.041Z,2.60
2018-06-12T22:38:22.703Z,2.47
2018-06-12T22:40:51.957Z,2.10
2018-06-12T22:43:20.929Z,2.47
2018-06-12T22:45:49.939Z,2.37
2018-06-12T22:48:19.003Z,1.50
2018-06-12T22:50:48.946Z,2.57
2018-06-12T22:53:20.863Z,2.03
2018-06-12T22:55:51.419Z,2.27
2018-06-12T22:58:20.758Z,2.40
2018-06-12T23:00:50.156Z,2.53
2018-06-12T23:03:19.674Z,2.83
2018-06-12T23:05:49.336Z,2.93
2018-06-12T23:08:19.599Z,3.77
2018-06-12T23:10:48.660Z,3.73
2018-06-12T23:13:18.040Z,3.50
2018-06-12T23:15:47.177Z,4.20
2018-06-12T23:18:17.065Z,3.73
2018-06-12T23:20:57.687Z,4.03
2018-06-12T23:23:26.715Z,3.87
2018-06-12T23:25:55.724Z,4.03
2018-06-12T23:28:27.748Z,2.33
2018-06-12T23:30:56.745Z,2.70
2018-06-12T23:33:26.921Z,3.00
2018-06-12T23:35:56.437Z,3.30
2018-06-12T23:38:25.838Z,2.87
2018-06-12T23:40:55.946Z,3.13
2018-06-12T23:43:25.909Z,2.43
2018-06-12T23:45:57.160Z,2.17
2018-06-12T23:48:26.545Z,3.27
2018-06-12T23:50:55.920Z,3.43
2018-06-12T23:53:26.275Z,4.50
2018-06-12T23:55:55.520Z,3.00
2018-06-12T23:58:30.244Z,2.30
